Oak Lake, Canada
Current Conditions -  °F | °C
As of 9:00 PM on Wednesday 22 Oct 2014 (Local Time) from CYBR Reporting Station
Few Clouds Few Clouds  
Wind Chill: 44°   Ceiling: Unl
Heat Index: 48°   Visibility: 15mi
Dew Point: 45°   Wind: 10mph
Humidity: 87%   Direction: 250°WSW
Pressure: 29.73"   Gusts: NA
Location:  49.77°N, 100.63°W
Report Text: CYBR 230200Z 25009KT 15SM FEW045 09/07 A2973 RMK SC2 SLP079
Loading
Personal Weather Stations






























Interactive Weather Map
Tropical Storm Tracking
New forecast layout! Learn more

10-Day Weather Forecast

Advertisements
Track Severe Weather on mobile